Time;durP1;ratioP1;P1;durP2;ratioP2;P2;SDS_P1;SDS_P2;PMS_P1;PMS_P2;Temp;Humidity;BMP_temperature;BMP_pressure;BME280_temperature;BME280_humidity;BME280_pressure;Samples;Min_cycle;Max_cycle;Signal;HPM_P1;HPM_P2
2022/10/17 00:01:26;;;;;;;85.10;81.07;;;;;;;11.10;100.00;101768.28;5056410;28;20028;-76
2022/10/17 00:03:51;;;;;;;92.50;88.68;;;;;;;11.05;100.00;101760.75;5057726;28;20492;-76
2022/10/17 00:06:17;;;;;;;81.20;77.57;;;;;;;11.00;100.00;101762.97;5065380;28;20132;-76
2022/10/17 00:08:43;;;;;;;80.65;76.78;;;;;;;10.92;100.00;101760.13;5061706;28;20111;-76
2022/10/17 00:11:15;;;;;;;79.47;76.22;;;;;;;10.96;100.00;101766.81;5061822;28;20047;-76
2022/10/17 00:13:41;;;;;;;68.72;65.95;;;;;;;10.96;100.00;101766.81;5058735;28;20032;-76
2022/10/17 00:16:07;;;;;;;71.30;68.38;;;;;;;10.98;100.00;101770.16;5060878;28;20472;-76
2022/10/17 00:18:32;;;;;;;73.10;69.93;;;;;;;11.00;100.00;101757.69;5062196;28;20056;-76
2022/10/17 00:20:57;;;;;;;63.47;60.47;;;;;;;11.02;100.00;101768.94;5060135;28;20037;-76
2022/10/17 00:23:23;;;;;;;80.55;76.85;;;;;;;11.10;100.00;101768.28;5062468;28;20063;-76
2022/10/17 00:25:58;;;;;;;77.13;74.13;;;;;;;11.18;100.00;101770.28;5061933;28;20037;-76
2022/10/17 00:28:23;;;;;;;88.53;84.15;;;;;;;11.07;100.00;101748.25;5061973;28;20021;-76
2022/10/17 00:30:55;;;;;;;77.40;74.28;;;;;;;11.24;100.00;101767.94;5060446;28;20086;-76
2022/10/17 00:33:21;;;;;;;82.03;78.72;;;;;;;11.27;100.00;101765.03;5060080;28;20035;-76
2022/10/17 00:35:46;;;;;;;80.93;78.03;;;;;;;11.18;100.00;101746.50;5061234;28;20115;-76
2022/10/17 00:38:11;;;;;;;80.75;77.57;;;;;;;11.28;100.00;101756.16;5059438;28;20040;-76
2022/10/17 00:40:36;;;;;;;78.63;75.53;;;;;;;11.30;100.00;101742.78;5061457;28;20041;-76
2022/10/17 00:43:02;;;;;;;92.70;88.85;;;;;;;11.31;100.00;101742.66;5062159;28;20084;-76
2022/10/17 00:45:30;;;;;;;79.80;76.80;;;;;;;11.36;100.00;101730.84;5061937;28;20115;-76
2022/10/17 00:48:08;;;;;;;84.85;81.13;;;;;;;11.41;100.00;101745.34;5061584;28;20374;-76
2022/10/17 00:53:55;;;;;;;74.55;71.18;;;;;;;11.54;100.00;101758.34;5061016;28;20144;-76
2022/10/17 00:56:20;;;;;;;84.50;81.38;;;;;;;11.58;100.00;101757.06;5061908;28;20033;-76
2022/10/17 00:58:47;;;;;;;91.93;88.43;;;;;;;11.58;100.00;101753.59;5060252;28;20493;-76
2022/10/17 01:01:12;;;;;;;88.93;85.40;;;;;;;11.50;100.00;101738.44;5070367;28;20063;-74
2022/10/17 01:03:38;;;;;;;87.63;83.70;;;;;;;11.51;100.00;101735.63;5079608;28;20203;-74
2022/10/17 01:06:03;;;;;;;91.53;87.63;;;;;;;11.47;100.00;101739.50;5080556;28;20050;-73
2022/10/17 01:08:28;;;;;;;91.72;88.05;;;;;;;11.45;100.00;101730.03;5080747;28;20044;-74
2022/10/17 01:11:12;;;;;;;85.03;81.22;;;;;;;11.41;100.00;101728.63;5079430;28;20036;-73
2022/10/17 01:14:13;;;;;;;85.97;82.85;;;;;;;11.40;100.00;101729.63;5082090;28;20460;-73
2022/10/17 01:16:51;;;;;;;;;;;;;;;11.38;100.00;101729.75;5060705;28;20040;-72
2022/10/17 01:19:28;;;;;;;64.20;61.17;;;;;;;11.39;100.00;101731.44;5075149;28;19924;-74
2022/10/17 01:22:13;;;;;;;83.50;80.38;;;;;;;11.22;100.00;101697.72;5078558;28;20033;-73
2022/10/17 01:24:48;;;;;;;84.47;81.07;;;;;;;11.42;100.00;101728.50;5071039;28;20020;-73
2022/10/17 01:27:33;;;;;;;79.63;76.30;;;;;;;11.44;100.00;101734.50;5073776;28;20755;-74
2022/10/17 01:30:17;;;;;;;85.18;81.80;;;;;;;11.45;100.00;101730.03;5074207;28;20407;-74
2022/10/17 01:32:53;;;;;;;84.68;80.85;;;;;;;11.49;100.00;101720.88;5080035;28;20031;-74
2022/10/17 01:35:24;;;;;;;94.22;90.43;;;;;;;11.41;100.00;101691.63;5072285;28;20040;-74
2022/10/17 01:38:04;;;;;;;91.85;88.32;;;;;;;11.52;100.00;101715.34;5073354;28;20284;-74
2022/10/17 01:40:38;;;;;;;84.80;81.57;;;;;;;11.43;100.00;101701.13;5071899;28;20040;-74
2022/10/17 01:43:10;;;;;;;87.82;84.35;;;;;;;11.53;100.00;101707.25;5070381;28;20033;-74
2022/10/17 01:46:15;;;;;;;92.78;88.90;;;;;;;11.52;100.00;101708.25;5070925;28;20040;-74
2022/10/17 01:48:44;;;;;;;78.20;74.60;;;;;;;11.42;100.00;101688.88;5075406;28;20033;-74
2022/10/17 01:51:21;;;;;;;87.65;84.07;;;;;;;11.55;100.00;101701.00;5074717;28;20037;-74
2022/10/17 01:54:02;;;;;;;84.35;81.10;;;;;;;11.58;100.00;101693.63;5069776;28;20041;-74
2022/10/17 01:56:31;;;;;;;89.73;86.03;;;;;;;11.50;100.00;101673.19;5071109;28;20025;-74
2022/10/17 01:59:19;;;;;;;90.93;87.25;;;;;;;11.52;100.00;101657.19;5069931;28;20040;-74
2022/10/17 02:01:49;;;;;;;79.90;76.90;;;;;;;11.60;100.00;101670.53;5065724;28;20040;-74
2022/10/17 02:04:15;;;;;;;92.18;88.63;;;;;;;11.61;100.00;101666.09;5079922;28;20088;-73
2022/10/17 02:06:40;;;;;;;90.47;86.82;;;;;;;11.63;100.00;101661.53;5083851;28;20210;-73
2022/10/17 02:09:25;;;;;;;92.85;88.78;;;;;;;11.59;100.00;101660.94;5075865;28;20029;-74
2022/10/17 02:12:15;;;;;;;89.03;85.03;;;;;;;11.50;100.00;101649.38;5075299;28;20037;-74
2022/10/17 02:15:06;;;;;;;86.95;83.75;;;;;;;11.60;100.00;101659.13;5076125;28;20089;-74
2022/10/17 02:18:05;;;;;;;93.28;89.05;;;;;;;11.61;100.00;101652.88;5076547;28;20068;-74
2022/10/17 02:20:35;;;;;;;83.53;80.30;;;;;;;11.59;100.00;101652.19;5079140;28;20039;-73
2022/10/17 02:23:23;;;;;;;89.38;86.10;;;;;;;11.59;100.00;101646.91;5078299;28;20053;-74
2022/10/17 02:26:13;;;;;;;86.43;83.00;;;;;;;11.58;100.00;101635.47;5080456;28;20033;-73
2022/10/17 02:28:46;;;;;;;85.20;81.63;;;;;;;11.58;100.00;101624.06;5078788;28;20040;-73
2022/10/17 02:31:37;;;;;;;84.97;81.45;;;;;;;11.56;100.00;101610.16;5075127;28;20029;-73
2022/10/17 02:34:30;;;;;;;87.03;83.65;;;;;;;11.55;100.00;101616.41;5078978;28;20033;-73
2022/10/17 02:36:59;;;;;;;82.70;79.55;;;;;;;11.56;100.00;101610.16;5078312;28;20040;-74
2022/10/17 02:39:27;;;;;;;83.50;80.07;;;;;;;11.44;100.00;101597.06;5082811;28;20024;-73
2022/10/17 02:41:55;;;;;;;90.32;86.32;;;;;;;11.52;100.00;101610.44;5080138;28;20033;-73
2022/10/17 02:44:22;;;;;;;82.68;79.53;;;;;;;11.52;100.00;101621.00;5080326;28;20094;-73
2022/10/17 02:46:54;;;;;;;85.25;81.85;;;;;;;11.51;100.00;101619.31;5081055;28;20413;-73
2022/10/17 02:49:30;;;;;;;82.30;79.20;;;;;;;11.50;100.00;101622.94;5087891;28;20702;-73
2022/10/17 02:52:11;;;;;;;83.18;79.53;;;;;;;11.38;100.00;101605.53;5081761;28;20032;-74
2022/10/17 02:54:42;;;;;;;88.93;85.57;;;;;;;11.36;100.00;101593.44;5080642;28;20015;-74
2022/10/17 02:57:22;;;;;;;85.28;81.93;;;;;;;11.44;100.00;101605.00;5077289;28;20032;-74
2022/10/17 02:59:49;;;;;;;90.70;87.00;;;;;;;11.40;100.00;101605.41;5083640;28;20024;-74
2022/10/17 03:02:14;;;;;;;87.50;83.63;;;;;;;11.40;100.00;101608.88;5077156;28;20055;-75
2022/10/17 03:04:44;;;;;;;88.03;84.20;;;;;;;11.19;100.00;101577.28;5074892;28;20040;-73
2022/10/17 03:07:09;;;;;;;89.45;85.88;;;;;;;11.37;100.00;101593.31;5076488;28;20033;-74
2022/10/17 03:09:35;;;;;;;83.75;80.30;;;;;;;11.34;100.00;101590.91;5077246;28;20056;-74
2022/10/17 03:12:00;;;;;;;83.13;79.90;;;;;;;11.33;100.00;101591.91;5075913;28;20040;-73
2022/10/17 03:14:25;;;;;;;86.97;82.82;;;;;;;11.32;100.00;101590.22;5074987;28;20021;-73
2022/10/17 03:16:51;;;;;;;86.82;83.50;;;;;;;11.33;100.00;101590.09;5077993;28;20063;-74
2022/10/17 03:19:16;;;;;;;82.78;79.53;;;;;;;11.37;100.00;101590.66;5080598;28;20404;-74
2022/10/17 03:21:42;;;;;;;79.38;75.45;;;;;;;11.38;100.00;101591.47;5061535;28;20073;-74
2022/10/17 03:24:07;;;;;;;86.45;83.07;;;;;;;11.40;100.00;101585.09;5078995;28;20045;-74
2022/10/17 03:26:33;;;;;;;92.80;89.10;;;;;;;11.43;100.00;101582.19;5075229;28;20036;-74
2022/10/17 03:28:58;;;;;;;80.57;77.43;;;;;;;11.43;100.00;101584.81;5075932;28;20033;-73
2022/10/17 03:31:23;;;;;;;83.55;80.32;;;;;;;11.30;100.00;101573.66;5078503;28;20090;-73
2022/10/17 03:33:49;;;;;;;85.35;81.82;;;;;;;11.31;100.00;101567.41;5074175;28;20020;-74
2022/10/17 03:36:16;;;;;;;86.40;82.28;;;;;;;11.27;100.00;101553.63;5075959;28;20052;-73
2022/10/17 03:38:43;;;;;;;85.80;82.00;;;;;;;11.38;100.00;101572.97;5077314;28;20029;-74
2022/10/17 03:41:09;;;;;;;74.55;71.53;;;;;;;11.20;100.00;101541.94;5076581;28;20040;-73
2022/10/17 03:43:34;;;;;;;75.32;72.05;;;;;;;11.34;100.00;101564.47;5080487;28;20033;-73
2022/10/17 03:46:00;;;;;;;85.90;82.40;;;;;;;11.33;100.00;101565.47;5082292;28;20097;-73
2022/10/17 03:48:27;;;;;;;79.88;76.70;;;;;;;11.29;100.00;101559.63;5084914;28;20076;-74
2022/10/17 03:50:58;;;;;;;77.75;74.32;;;;;;;11.16;100.00;101529.97;5083028;28;20103;-74
2022/10/17 03:53:24;;;;;;;88.70;85.28;;;;;;;11.29;100.00;101558.78;5083881;28;20000;-73
2022/10/17 03:55:49;;;;;;;77.93;74.88;;;;;;;11.28;100.00;101567.69;5064792;28;20036;-73
2022/10/17 03:58:14;;;;;;;88.47;85.15;;;;;;;11.23;100.00;101554.03;5082300;28;20017;-74
2022/10/17 04:00:40;;;;;;;86.78;83.15;;;;;;;11.28;100.00;101565.06;5080792;28;20036;-74
2022/10/17 04:03:05;;;;;;;95.82;92.25;;;;;;;11.28;100.00;101572.97;5081865;28;20049;-73
2022/10/17 04:05:30;;;;;;;78.55;75.30;;;;;;;11.30;100.00;101574.50;5082748;28;20039;-74
2022/10/17 04:07:56;;;;;;;86.47;83.20;;;;;;;11.34;100.00;101569.78;5077816;28;20028;-73
2022/10/17 04:10:21;;;;;;;80.13;77.13;;;;;;;11.37;100.00;101569.50;5073324;28;20032;-73
2022/10/17 04:12:46;;;;;;;80.22;76.70;;;;;;;11.38;100.00;101570.34;5070409;28;20067;-73
2022/10/17 04:15:12;;;;;;;84.72;80.97;;;;;;;11.40;100.00;101571.88;5077958;28;20032;-73
2022/10/17 04:17:37;;;;;;;83.28;80.18;;;;;;;11.45;100.00;101564.38;5080249;28;20041;-73
2022/10/17 04:20:03;;;;;;;87.07;83.40;;;;;;;11.47;100.00;101553.66;5078703;28;20067;-73
2022/10/17 04:22:29;;;;;;;85.43;81.97;;;;;;;11.47;100.00;101559.75;5070697;28;20082;-73
2022/10/17 04:24:54;;;;;;;83.25;79.88;;;;;;;11.48;100.00;101576.47;5071607;28;20055;-73
2022/10/17 04:27:19;;;;;;;81.30;77.97;;;;;;;11.47;100.00;101570.34;5066246;28;20036;-72
2022/10/17 04:29:45;;;;;;;79.85;76.53;;;;;;;11.50;100.00;101558.69;5077307;28;20032;-73
2022/10/17 04:32:10;;;;;;;79.03;75.90;;;;;;;11.51;100.00;101571.72;5078683;28;20036;-76
2022/10/17 04:34:35;;;;;;;84.32;80.75;;;;;;;11.45;100.00;101561.75;5082170;28;20029;-74
2022/10/17 04:37:01;;;;;;;73.55;70.55;;;;;;;11.51;100.00;101562.97;5061680;28;20033;-73
2022/10/17 04:39:26;;;;;;;80.25;76.88;;;;;;;11.51;100.00;101557.69;5078954;28;20063;-75
2022/10/17 04:41:52;;;;;;;83.60;80.32;;;;;;;11.45;100.00;101551.16;5080725;28;20059;-74
2022/10/17 04:44:19;;;;;;;84.03;79.55;;;;;;;11.53;100.00;101575.06;5076223;28;20094;-73
2022/10/17 04:46:45;;;;;;;85.90;82.40;;;;;;;11.48;100.00;101560.63;5081499;28;20036;-73
2022/10/17 04:49:10;;;;;;;73.28;70.32;;;;;;;11.53;100.00;101574.25;5073735;28;20031;-73
2022/10/17 04:51:37;;;;;;;76.25;73.15;;;;;;;11.53;100.00;101582.19;5073864;28;20037;-73
2022/10/17 04:54:02;;;;;;;73.93;71.00;;;;;;;11.46;100.00;101563.41;5076776;28;20039;-73
2022/10/17 04:56:27;;;;;;;83.05;79.85;;;;;;;11.54;100.00;101570.66;5084065;28;20032;-73
2022/10/17 04:58:53;;;;;;;88.22;84.63;;;;;;;11.53;100.00;101572.44;5077011;28;20480;-73
2022/10/17 05:01:21;;;;;;;86.28;82.75;;;;;;;11.59;100.00;101581.63;5049638;28;20116;-71
2022/10/17 05:03:47;;;;;;;83.20;79.90;;;;;;;11.61;100.00;101578.84;5061141;28;20475;-72
2022/10/17 05:06:21;;;;;;;71.82;68.72;;;;;;;11.64;100.00;101586.50;5060188;28;20032;-72
2022/10/17 05:08:47;;;;;;;97.25;93.50;;;;;;;11.51;100.00;101571.72;5060155;28;20036;-72
2022/10/17 05:11:24;;;;;;;80.13;76.57;;;;;;;11.64;100.00;101579.41;5061600;28;20453;-72
2022/10/17 05:13:56;;;;;;;75.85;72.88;;;;;;;11.53;100.00;101550.47;5062424;28;20021;-72
2022/10/17 05:16:21;;;;;;;;;;;;;;;11.69;100.00;101552.53;5059843;28;20036;-72
2022/10/17 05:18:49;;;;;;;71.57;68.47;;;;;;;11.72;100.00;101562.84;5060051;28;19931;-72
2022/10/17 05:21:14;;;;;;;71.72;68.78;;;;;;;11.75;100.00;101557.25;5060375;28;20055;-72
2022/10/17 05:23:40;;;;;;;78.72;75.53;;;;;;;11.77;100.00;101552.69;5061461;28;20074;-73
2022/10/17 05:26:05;;;;;;;78.35;75.13;;;;;;;11.81;100.00;101558.53;5060422;28;20083;-71
2022/10/17 05:28:30;;;;;;;72.47;69.32;;;;;;;11.80;100.00;101556.84;5060033;28;20037;-71
2022/10/17 05:30:56;;;;;;;78.28;75.05;;;;;;;11.83;100.00;101559.22;5059755;28;20761;-71
2022/10/17 05:33:22;;;;;;;83.47;79.13;;;;;;;11.63;100.00;101543.38;5060505;28;20052;-71
2022/10/17 05:35:48;;;;;;;77.03;73.78;;;;;;;11.64;100.00;101544.19;5059205;28;20115;-72
2022/10/17 05:38:13;;;;;;;79.35;75.93;;;;;;;11.85;100.00;101571.31;5058706;28;20024;-71
2022/10/17 05:40:39;;;;;;;83.72;80.15;;;;;;;11.87;100.00;101556.16;5060480;28;20025;-71
2022/10/17 05:43:04;;;;;;;81.78;78.47;;;;;;;11.90;100.00;101550.59;5059689;28;20029;-71
2022/10/17 05:45:29;;;;;;;80.25;76.82;;;;;;;11.92;100.00;101546.00;5059226;28;20513;-72
2022/10/17 05:47:55;;;;;;;71.93;68.65;;;;;;;11.96;100.00;101549.22;5058655;28;20077;-71
2022/10/17 05:50:22;;;;;;;74.03;70.80;;;;;;;11.96;100.00;101549.22;5060133;28;20490;-71
2022/10/17 05:52:52;;;;;;;77.05;73.78;;;;;;;12.00;100.00;101550.59;5057019;28;20392;-71
2022/10/17 05:55:17;;;;;;;64.93;62.22;;;;;;;12.04;100.00;101557.28;5057674;28;20025;-72
2022/10/17 05:57:43;;;;;;;70.30;67.18;;;;;;;12.08;100.00;101552.50;5056438;28;20040;-72
2022/10/17 06:00:09;;;;;;;75.95;72.82;;;;;;;12.11;100.00;101541.66;5057545;28;20021;-72
2022/10/17 06:02:34;;;;;;;70.05;67.05;;;;;;;12.14;100.00;101542.19;5058652;28;20051;-72
2022/10/17 06:04:59;;;;;;;71.15;67.95;;;;;;;12.20;100.00;101548.75;5055903;28;20409;-72
2022/10/17 06:07:25;;;;;;;77.35;73.78;;;;;;;12.22;100.00;101565.31;5056776;28;20021;-72
2022/10/17 06:09:50;;;;;;;73.57;70.20;;;;;;;12.26;100.00;101565.84;5056790;28;20349;-72
2022/10/17 06:12:15;;;;;;;70.50;67.00;;;;;;;12.21;100.00;101547.75;5057608;28;20032;-72
2022/10/17 06:14:41;;;;;;;65.25;61.95;;;;;;;12.29;100.00;101560.28;5056327;28;20024;-72
2022/10/17 06:17:06;;;;;;;77.72;74.10;;;;;;;12.30;100.00;101572.50;5057043;28;20202;-72
2022/10/17 06:19:32;;;;;;;75.80;72.50;;;;;;;12.34;100.00;101568.59;5057624;28;20151;-72
2022/10/17 06:21:57;;;;;;;69.85;66.63;;;;;;;12.39;100.00;101576.13;5057845;28;20421;-71
2022/10/17 06:24:22;;;;;;;74.68;71.35;;;;;;;12.45;100.00;101568.44;5058157;28;20055;-71
2022/10/17 06:26:48;;;;;;;70.03;67.13;;;;;;;12.48;100.00;101573.47;5054599;28;20119;-71
2022/10/17 06:29:14;;;;;;;73.57;70.30;;;;;;;12.51;100.00;101580.28;5056338;28;20033;-72
2022/10/17 06:31:39;;;;;;;80.28;76.65;;;;;;;12.59;100.00;101587.50;5056729;28;20060;-72
2022/10/17 06:34:05;;;;;;;72.70;69.35;;;;;;;12.64;100.00;101595.84;5057065;28;20119;-72
2022/10/17 06:36:30;;;;;;;76.78;73.25;;;;;;;12.65;100.00;101586.91;5056052;28;20480;-72
2022/10/17 06:38:55;;;;;;;74.47;70.68;;;;;;;12.66;100.00;101586.75;5055900;28;20032;-72
2022/10/17 06:41:21;;;;;;;67.63;64.60;;;;;;;12.68;100.00;101590.09;5056825;28;20036;-71
2022/10/17 06:43:47;;;;;;;73.80;70.05;;;;;;;12.70;100.00;101601.38;5056595;28;20021;-71
2022/10/17 06:46:15;;;;;;;72.38;69.18;;;;;;;12.72;100.00;101609.19;5055415;28;20025;-72
2022/10/17 06:48:40;;;;;;;68.22;64.95;;;;;;;12.75;100.00;101615.00;5056216;28;20029;-71
2022/10/17 06:51:08;;;;;;;84.93;81.20;;;;;;;12.77;100.00;101626.31;5055721;28;20043;-72
2022/10/17 06:53:34;;;;;;;69.45;66.57;;;;;;;12.77;100.00;101631.59;5055952;28;20403;-72
2022/10/17 06:56:02;;;;;;;66.32;63.33;;;;;;;12.64;100.00;101612.56;5056710;28;20032;-72
2022/10/17 06:58:33;;;;;;;72.40;69.05;;;;;;;12.73;100.00;101629.38;5055414;28;20113;-71
2022/10/17 07:00:59;;;;;;;71.35;68.25;;;;;;;12.79;100.00;101630.63;5056615;28;20112;-71
2022/10/17 07:03:26;;;;;;;70.28;66.90;;;;;;;12.81;100.00;101639.28;5055724;28;20036;-72
2022/10/17 07:05:52;;;;;;;76.15;72.95;;;;;;;12.82;100.00;101620.56;5055823;28;20481;-72
2022/10/17 07:08:18;;;;;;;76.22;72.63;;;;;;;12.87;100.00;101617.47;5052859;28;20025;-72
2022/10/17 07:10:43;;;;;;;71.38;68.15;;;;;;;12.91;100.00;101616.19;5051842;28;20036;-71
2022/10/17 07:13:09;;;;;;;70.95;67.53;;;;;;;12.95;100.00;101618.41;5055575;28;20067;-71
2022/10/17 07:15:35;;;;;;;68.15;65.05;;;;;;;13.01;100.00;101614.34;5050697;28;20032;-72
2022/10/17 07:18:01;;;;;;;62.08;59.13;;;;;;;13.04;100.00;101624.66;5054133;28;20048;-72
2022/10/17 07:20:26;;;;;;;68.63;65.45;;;;;;;13.09;100.00;101627.72;5052744;28;20040;-72
2022/10/17 07:22:52;;;;;;;69.15;65.97;;;;;;;13.15;100.00;101620.97;5054043;28;20062;-72
2022/10/17 07:25:17;;;;;;;67.93;64.93;;;;;;;13.21;100.00;101616.91;5054159;28;20028;-72
2022/10/17 07:27:42;;;;;;;71.13;67.82;;;;;;;13.26;100.00;101625.22;5052918;28;20504;-72
2022/10/17 07:30:08;;;;;;;74.97;71.15;;;;;;;13.32;100.00;101622.84;5053326;28;20037;-72
2022/10/17 07:32:34;;;;;;;59.45;56.80;;;;;;;13.40;100.00;101635.38;5054042;28;20028;-72
2022/10/17 07:34:59;;;;;;;68.68;65.55;;;;;;;13.50;100.00;101637.94;5057604;28;20040;-72
2022/10/17 07:37:24;;;;;;;64.55;61.45;;;;;;;13.62;100.00;101635.94;5052160;28;20593;-72
2022/10/17 07:39:50;;;;;;;69.32;65.85;;;;;;;13.68;100.00;101638.81;5055121;28;20572;-72
2022/10/17 07:42:15;;;;;;;72.25;69.20;;;;;;;13.84;100.00;101643.44;5053022;28;20033;-73
2022/10/17 07:44:41;;;;;;;70.55;67.53;;;;;;;13.94;100.00;101636.22;5053388;28;20029;-72
2022/10/17 07:47:06;;;;;;;65.00;62.13;;;;;;;14.01;100.00;101623.19;5052540;28;20029;-73
2022/10/17 07:49:31;;;;;;;67.47;64.43;;;;;;;14.19;100.00;101617.84;5052157;28;20124;-72
2022/10/17 07:51:57;;;;;;;72.30;68.95;;;;;;;14.31;100.00;101629.06;5052156;28;20119;-73
2022/10/17 07:54:22;;;;;;;63.65;60.75;;;;;;;14.35;100.00;101630.38;5053304;28;20107;-73
2022/10/17 07:56:49;;;;;;;65.05;62.15;;;;;;;14.42;100.00;101626.16;5054394;28;20028;-72
2022/10/17 07:59:16;;;;;;;64.10;61.17;;;;;;;14.44;100.00;101637.44;5053171;28;20040;-72
2022/10/17 08:01:42;;;;;;;59.47;56.47;;;;;;;14.43;100.00;101637.59;5056399;28;20128;-72
2022/10/17 08:04:07;;;;;;;65.20;62.30;;;;;;;14.48;100.00;101632.63;5052812;28;20123;-72
2022/10/17 08:06:32;;;;;;;59.70;57.05;;;;;;;14.53;100.00;101641.81;5056139;28;20840;-72
2022/10/17 08:09:00;;;;;;;57.30;54.25;;;;;;;14.61;100.00;101641.03;5054736;28;20060;-71
2022/10/17 08:11:25;;;;;;;65.43;62.53;;;;;;;14.70;100.00;101636.59;5057702;28;20381;-72
2022/10/17 08:13:51;;;;;;;69.30;66.38;;;;;;;15.03;100.00;101650.91;5054674;28;20044;-73
2022/10/17 08:16:16;;;;;;;69.97;66.60;;;;;;;15.12;100.00;101649.94;5054247;28;20036;-73
2022/10/17 08:18:42;;;;;;;65.80;62.92;;;;;;;15.31;100.00;101653.31;5053432;28;20463;-72
2022/10/17 08:21:08;;;;;;;62.40;59.50;;;;;;;15.41;100.00;101662.00;5054222;28;20053;-74
2022/10/17 08:23:34;;;;;;;68.13;65.15;;;;;;;15.41;100.00;101657.50;5055842;28;20109;-71
2022/10/17 08:26:01;;;;;;;62.65;59.97;;;;;;;15.45;100.00;101658.03;5056817;28;20473;-72
2022/10/17 08:28:27;;;;;;;60.45;57.47;;;;;;;15.50;100.00;101655.72;5054179;28;20055;-72
2022/10/17 08:30:52;;;;;;;60.63;57.88;;;;;;;15.60;100.00;101653.75;5054625;28;20366;-72
2022/10/17 08:33:18;;;;;;;62.67;59.80;;;;;;;15.66;100.00;101662.06;5058151;28;20024;-72
2022/10/17 08:35:43;;;;;;;61.28;58.67;;;;;;;15.71;100.00;101646.44;5055915;28;20037;-72
2022/10/17 08:38:08;;;;;;;61.88;59.13;;;;;;;15.78;100.00;101640.31;5055032;28;20118;-73
2022/10/17 08:40:35;;;;;;;62.63;59.78;;;;;;;15.79;100.00;101644.66;5053504;28;20071;-72
2022/10/17 08:43:25;;;;;;;61.97;59.08;;;;;;;15.83;100.00;101639.84;5053448;28;20021;-72
2022/10/17 08:45:54;;;;;;;61.78;59.20;;;;;;;15.95;100.00;101640.34;5053565;28;20060;-72
2022/10/17 08:48:24;;;;;;;63.25;60.47;;;;;;;15.92;100.00;101624.72;5055224;28;20579;-72
2022/10/17 08:51:27;;;;;;;65.03;62.25;;;;;;;16.04;100.00;101637.50;5055322;28;20024;-72
2022/10/17 08:54:17;;;;;;;63.92;60.85;;;;;;;16.14;100.00;101647.19;5053803;28;20060;-72
2022/10/17 08:56:46;;;;;;;59.08;56.15;;;;;;;16.13;100.00;101645.50;5054878;28;20032;-71
2022/10/17 08:59:30;;;;;;;62.15;59.50;;;;;;;16.27;100.00;101663.47;5053392;28;20068;-72
2022/10/17 09:02:32;;;;;;;59.67;57.03;;;;;;;16.38;100.00;101670.31;5054704;28;20020;-73
2022/10/17 09:05:07;;;;;;;55.28;52.60;;;;;;;16.52;100.00;101660.78;5054686;28;20120;-72
2022/10/17 09:07:53;;;;;;;54.05;51.70;;;;;;;16.59;100.00;101691.06;5052562;28;20515;-73
2022/10/17 09:10:40;;;;;;;58.80;56.13;;;;;;;16.69;100.00;101699.72;5052665;28;20071;-72
2022/10/17 09:13:27;;;;;;;62.40;59.80;;;;;;;16.71;100.00;101689.72;5055860;28;20033;-73
2022/10/17 09:16:06;;;;;;;57.92;55.33;;;;;;;16.67;100.00;101715.06;5056908;28;20043;-72
2022/10/17 09:18:58;;;;;;;50.97;48.13;;;;;;;16.60;100.00;101711.41;5056367;28;20457;-72
2022/10/17 09:21:36;;;;;;;51.88;49.53;;;;;;;16.56;100.00;101723.41;5057639;28;20021;-72
2022/10/17 09:24:05;;;;;;;45.60;43.60;;;;;;;16.48;100.00;101683.44;5056458;28;20083;-72
2022/10/17 09:26:30;;;;;;;52.50;50.22;;;;;;;16.70;100.00;101724.53;5056791;28;20036;-73
2022/10/17 09:28:59;;;;;;;51.90;49.67;;;;;;;16.71;100.00;101766.19;5055050;28;20037;-72
2022/10/17 09:31:32;;;;;;;52.20;49.83;;;;;;;16.64;100.00;101801.50;5054999;28;20044;-72
2022/10/17 09:34:01;;;;;;;57.15;54.75;;;;;;;16.64;100.00;101792.69;5055345;28;20036;-72
2022/10/17 09:36:33;;;;;;;56.70;53.83;;;;;;;16.54;100.00;101779.53;5054909;28;20473;-72
2022/10/17 09:39:03;;;;;;;60.53;57.53;;;;;;;16.57;100.00;101797.00;5055329;28;20037;-72
2022/10/17 09:41:48;;;;;;;53.25;50.22;;;;;;;16.50;100.00;101812.00;5057370;28;20471;-72
2022/10/17 09:44:24;;;;;;;53.60;51.17;;;;;;;16.31;100.00;101795.34;5057468;28;20031;-72
2022/10/17 09:47:08;;;;;;;50.92;48.65;;;;;;;16.49;100.00;101818.34;5056559;28;20439;-72
2022/10/17 09:49:37;;;;;;;53.25;51.05;;;;;;;16.44;100.00;101805.53;5054517;28;20040;-72
2022/10/17 09:52:09;;;;;;;57.05;54.55;;;;;;;16.56;100.00;101822.00;5056575;28;20055;-72
2022/10/17 09:54:47;;;;;;;75.60;68.95;;;;;;;16.60;100.00;101837.50;5056130;28;20047;-72
2022/10/17 09:57:15;;;;;;;56.67;54.28;;;;;;;16.61;100.00;101833.00;5056444;28;20040;-72
2022/10/17 09:59:47;;;;;;;52.33;50.05;;;;;;;16.64;100.00;101830.00;5054191;28;20601;-72
2022/10/17 10:02:19;;;;;;;56.90;54.55;;;;;;;16.63;100.00;101823.00;5056035;28;20071;-72
2022/10/17 10:05:10;;;;;;;56.88;54.15;;;;;;;16.47;100.00;101799.03;5054463;28;20036;-72
2022/10/17 10:07:37;;;;;;;;;;;;;;;16.56;100.00;101816.66;5053930;28;20016;-72
2022/10/17 10:10:05;;;;;;;55.22;52.65;;;;;;;16.53;100.00;101823.16;5053012;28;20291;-71
2022/10/17 10:12:35;;;;;;;49.60;47.22;;;;;;;16.50;100.00;101830.66;5055297;28;20487;-71
2022/10/17 10:15:00;;;;;;;57.22;54.75;;;;;;;16.42;100.00;101813.66;5054800;28;20048;-71
2022/10/17 10:17:32;;;;;;;55.58;53.15;;;;;;;16.39;100.00;101823.81;5061074;28;20134;-72
2022/10/17 10:19:58;;;;;;;59.65;56.97;;;;;;;16.39;100.00;101821.16;5053674;28;20646;-72
2022/10/17 10:22:23;;;;;;;60.20;57.53;;;;;;;16.39;100.00;101829.13;5054313;28;20112;-72
2022/10/17 10:25:13;;;;;;;59.35;56.65;;;;;;;16.41;100.00;101833.28;5054259;28;20067;-73
2022/10/17 10:27:40;;;;;;;60.70;56.67;;;;;;;16.35;100.00;101831.31;5052252;28;20025;-73
2022/10/17 10:30:20;;;;;;;54.50;52.00;;;;;;;16.30;100.00;101832.78;5053403;28;20025;-72
2022/10/17 10:32:47;;;;;;;60.10;56.42;;;;;;;16.28;100.00;101842.78;5054705;28;20067;-72
2022/10/17 10:35:22;;;;;;;56.28;53.28;;;;;;;16.21;100.00;101821.28;5054316;28;20028;-72
2022/10/17 10:37:51;;;;;;;56.17;53.72;;;;;;;16.25;100.00;101826.13;5054553;28;20051;-72
2022/10/17 10:40:26;;;;;;;67.22;62.42;;;;;;;16.04;100.00;101794.59;5057271;28;20374;-72
2022/10/17 10:42:54;;;;;;;60.78;56.65;;;;;;;16.15;100.00;101811.28;5053254;28;20481;-72
2022/10/17 10:45:24;;;;;;;55.40;52.65;;;;;;;16.23;100.00;101830.78;5052081;28;20148;-72
2022/10/17 10:48:02;;;;;;;54.83;52.13;;;;;;;16.10;100.00;101795.78;5052890;28;20024;-73
2022/10/17 10:50:40;;;;;;;56.67;53.30;;;;;;;16.24;100.00;101800.50;5053275;28;20016;-72
2022/10/17 10:53:17;;;;;;;59.63;56.53;;;;;;;16.28;100.00;101805.47;5052211;28;20051;-73
2022/10/17 10:55:49;;;;;;;68.82;64.32;;;;;;;16.28;100.00;101806.31;5054972;28;20032;-72
2022/10/17 10:58:26;;;;;;;59.13;56.00;;;;;;;16.27;100.00;101809.97;5053381;28;20020;-72
2022/10/17 11:00:54;;;;;;;59.15;56.45;;;;;;;16.31;100.00;101805.13;5055444;28;20036;-72
2022/10/17 11:03:26;;;;;;;63.67;60.17;;;;;;;16.30;100.00;101806.97;5055296;28;20055;-72
2022/10/17 11:05:53;;;;;;;61.33;57.35;;;;;;;16.28;100.00;101803.66;5052294;28;20033;-72
2022/10/17 11:08:26;;;;;;;55.95;53.30;;;;;;;16.29;100.00;101805.31;5053652;28;20047;-72
2022/10/17 11:11:12;;;;;;;58.13;54.88;;;;;;;16.29;100.00;101796.47;5051390;28;20419;-72
2022/10/17 11:13:47;;;;;;;53.90;51.40;;;;;;;16.33;100.00;101797.81;5053905;28;20027;-73
2022/10/17 11:16:26;;;;;;;53.25;50.95;;;;;;;16.21;100.00;101776.00;5053392;28;20025;-72
2022/10/17 11:19:14;;;;;;;51.85;49.63;;;;;;;16.25;100.00;101793.34;5053760;28;20684;-73